sensor_id;sensor_type;location;lat;lon;timestamp;temperature;humidity
29575;DHT22;16507;51.046;6.406;2022-07-21T00:01:06;18.30;99.90
29575;DHT22;16507;51.046;6.406;2022-07-21T00:03:32;18.30;99.90
29575;DHT22;16507;51.046;6.406;2022-07-21T00:05:57;18.30;99.90
29575;DHT22;16507;51.046;6.406;2022-07-21T00:08:23;18.30;99.90
29575;DHT22;16507;51.046;6.406;2022-07-21T00:10:49;18.40;99.90
29575;DHT22;16507;51.046;6.406;2022-07-21T00:13:15;18.40;99.90
29575;DHT22;16507;51.046;6.406;2022-07-21T00:15:43;18.30;99.90
29575;DHT22;16507;51.046;6.406;2022-07-21T00:18:09;18.30;99.90
29575;DHT22;16507;51.046;6.406;2022-07-21T00:20:35;18.40;99.90
29575;DHT22;16507;51.046;6.406;2022-07-21T00:23:00;18.40;99.90
29575;DHT22;16507;51.046;6.406;2022-07-21T00:25:26;18.40;99.90
29575;DHT22;16507;51.046;6.406;2022-07-21T00:27:52;18.40;99.90
29575;DHT22;16507;51.046;6.406;2022-07-21T00:30:17;18.40;99.90
29575;DHT22;16507;51.046;6.406;2022-07-21T00:32:43;18.40;99.90
29575;DHT22;16507;51.046;6.406;2022-07-21T00:35:10;18.40;99.90
29575;DHT22;16507;51.046;6.406;2022-07-21T00:37:37;18.40;99.90
29575;DHT22;16507;51.046;6.406;2022-07-21T00:40:04;18.40;99.90
29575;DHT22;16507;51.046;6.406;2022-07-21T00:42:31;18.40;99.90
29575;DHT22;16507;51.046;6.406;2022-07-21T00:44:58;18.40;99.90
29575;DHT22;16507;51.046;6.406;2022-07-21T00:47:26;18.40;99.90
29575;DHT22;16507;51.046;6.406;2022-07-21T00:49:56;18.40;99.90
29575;DHT22;16507;51.046;6.406;2022-07-21T00:52:22;18.40;99.90
29575;DHT22;16507;51.046;6.406;2022-07-21T00:54:48;18.30;99.90
29575;DHT22;16507;51.046;6.406;2022-07-21T00:57:14;18.30;99.90
29575;DHT22;16507;51.046;6.406;2022-07-21T00:59:41;18.30;99.90
29575;DHT22;16507;51.046;6.406;2022-07-21T01:02:09;18.30;99.90
29575;DHT22;16507;51.046;6.406;2022-07-21T01:04:35;18.30;99.90
29575;DHT22;16507;51.046;6.406;2022-07-21T01:07:02;18.30;99.90
29575;DHT22;16507;51.046;6.406;2022-07-21T01:09:28;18.30;99.90
29575;DHT22;16507;51.046;6.406;2022-07-21T01:11:53;18.30;99.90
29575;DHT22;16507;51.046;6.406;2022-07-21T01:14:19;18.30;99.90
29575;DHT22;16507;51.046;6.406;2022-07-21T01:16:45;18.30;99.90
29575;DHT22;16507;51.046;6.406;2022-07-21T01:19:11;18.30;99.90
29575;DHT22;16507;51.046;6.406;2022-07-21T01:21:42;18.20;99.90
29575;DHT22;16507;51.046;6.406;2022-07-21T01:24:09;18.30;99.90
29575;DHT22;16507;51.046;6.406;2022-07-21T01:26:49;18.30;99.90
29575;DHT22;16507;51.046;6.406;2022-07-21T01:29:17;18.30;99.90
29575;DHT22;16507;51.046;6.406;2022-07-21T01:31:45;18.20;99.90
29575;DHT22;16507;51.046;6.406;2022-07-21T01:34:11;18.30;99.90
29575;DHT22;16507;51.046;6.406;2022-07-21T01:36:37;18.30;99.90
29575;DHT22;16507;51.046;6.406;2022-07-21T01:39:05;18.20;99.90
29575;DHT22;16507;51.046;6.406;2022-07-21T01:41:49;18.20;99.90
29575;DHT22;16507;51.046;6.406;2022-07-21T01:44:15;18.20;99.90
29575;DHT22;16507;51.046;6.406;2022-07-21T01:46:47;18.30;99.90
29575;DHT22;16507;51.046;6.406;2022-07-21T01:49:15;18.30;99.90
29575;DHT22;16507;51.046;6.406;2022-07-21T01:51:41;18.30;99.90
29575;DHT22;16507;51.046;6.406;2022-07-21T01:54:07;18.30;99.90
29575;DHT22;16507;51.046;6.406;2022-07-21T01:56:34;18.30;99.90
29575;DHT22;16507;51.046;6.406;2022-07-21T01:59:01;18.30;99.90
29575;DHT22;16507;51.046;6.406;2022-07-21T02:01:28;18.30;99.90
29575;DHT22;16507;51.046;6.406;2022-07-21T02:03:56;18.30;99.90
29575;DHT22;16507;51.046;6.406;2022-07-21T02:06:23;18.30;99.90
29575;DHT22;16507;51.046;6.406;2022-07-21T02:08:49;18.30;99.90
29575;DHT22;16507;51.046;6.406;2022-07-21T02:11:16;18.30;99.90
29575;DHT22;16507;51.046;6.406;2022-07-21T02:13:42;18.30;99.90
29575;DHT22;16507;51.046;6.406;2022-07-21T02:16:08;18.30;99.90
29575;DHT22;16507;51.046;6.406;2022-07-21T02:18:34;18.20;99.90
29575;DHT22;16507;51.046;6.406;2022-07-21T02:21:00;18.20;99.90
29575;DHT22;16507;51.046;6.406;2022-07-21T02:23:25;18.20;99.90
29575;DHT22;16507;51.046;6.406;2022-07-21T02:25:52;18.10;99.90
29575;DHT22;16507;51.046;6.406;2022-07-21T02:28:21;18.10;99.90
29575;DHT22;16507;51.046;6.406;2022-07-21T02:30:47;18.10;99.90
29575;DHT22;16507;51.046;6.406;2022-07-21T02:33:13;18.10;99.90
29575;DHT22;16507;51.046;6.406;2022-07-21T02:35:39;18.10;99.90
29575;DHT22;16507;51.046;6.406;2022-07-21T02:38:06;18.10;99.90
29575;DHT22;16507;51.046;6.406;2022-07-21T02:40:32;18.10;99.90
29575;DHT22;16507;51.046;6.406;2022-07-21T02:42:57;18.10;99.90
29575;DHT22;16507;51.046;6.406;2022-07-21T02:45:24;18.10;99.90
29575;DHT22;16507;51.046;6.406;2022-07-21T02:47:54;18.10;99.90
29575;DHT22;16507;51.046;6.406;2022-07-21T02:50:22;18.10;99.90
29575;DHT22;16507;51.046;6.406;2022-07-21T02:52:48;18.10;99.90
29575;DHT22;16507;51.046;6.406;2022-07-21T02:55:14;18.10;99.90
29575;DHT22;16507;51.046;6.406;2022-07-21T02:57:40;18.20;99.90
29575;DHT22;16507;51.046;6.406;2022-07-21T03:00:08;18.10;99.90
29575;DHT22;16507;51.046;6.406;2022-07-21T03:02:34;18.10;99.90
29575;DHT22;16507;51.046;6.406;2022-07-21T03:05:00;18.10;99.90
29575;DHT22;16507;51.046;6.406;2022-07-21T03:07:26;18.10;99.90
29575;DHT22;16507;51.046;6.406;2022-07-21T03:09:51;18.10;99.90
29575;DHT22;16507;51.046;6.406;2022-07-21T03:12:17;18.10;99.90
29575;DHT22;16507;51.046;6.406;2022-07-21T03:14:43;18.10;99.90
29575;DHT22;16507;51.046;6.406;2022-07-21T03:17:08;18.10;99.90
29575;DHT22;16507;51.046;6.406;2022-07-21T03:19:34;18.10;99.90
29575;DHT22;16507;51.046;6.406;2022-07-21T03:21:59;18.10;99.90
29575;DHT22;16507;51.046;6.406;2022-07-21T03:24:25;18.10;99.90
29575;DHT22;16507;51.046;6.406;2022-07-21T03:26:51;18.10;99.90
29575;DHT22;16507;51.046;6.406;2022-07-21T03:29:16;18.10;99.90
29575;DHT22;16507;51.046;6.406;2022-07-21T03:31:42;18.10;99.90
29575;DHT22;16507;51.046;6.406;2022-07-21T03:34:08;18.10;99.90
29575;DHT22;16507;51.046;6.406;2022-07-21T03:36:33;18.10;99.90
29575;DHT22;16507;51.046;6.406;2022-07-21T03:38:59;18.10;99.90
29575;DHT22;16507;51.046;6.406;2022-07-21T03:41:25;18.10;99.90
29575;DHT22;16507;51.046;6.406;2022-07-21T03:43:50;18.10;99.90
29575;DHT22;16507;51.046;6.406;2022-07-21T03:46:16;18.00;99.90
29575;DHT22;16507;51.046;6.406;2022-07-21T03:48:44;18.10;99.90
29575;DHT22;16507;51.046;6.406;2022-07-21T03:51:10;18.10;99.90
29575;DHT22;16507;51.046;6.406;2022-07-21T03:53:36;18.10;99.90
29575;DHT22;16507;51.046;6.406;2022-07-21T03:56:03;18.00;99.90
29575;DHT22;16507;51.046;6.406;2022-07-21T03:58:29;18.00;99.90
29575;DHT22;16507;51.046;6.406;2022-07-21T04:00:54;18.00;99.90
29575;DHT22;16507;51.046;6.406;2022-07-21T04:03:20;18.10;99.90
29575;DHT22;16507;51.046;6.406;2022-07-21T04:05:46;18.10;99.90
29575;DHT22;16507;51.046;6.406;2022-07-21T04:08:12;18.10;99.90
29575;DHT22;16507;51.046;6.406;2022-07-21T04:10:40;18.10;99.90
29575;DHT22;16507;51.046;6.406;2022-07-21T04:13:07;18.10;99.90
29575;DHT22;16507;51.046;6.406;2022-07-21T04:15:34;18.10;99.90
29575;DHT22;16507;51.046;6.406;2022-07-21T04:17:59;18.20;99.90
29575;DHT22;16507;51.046;6.406;2022-07-21T04:20:25;18.20;99.90
29575;DHT22;16507;51.046;6.406;2022-07-21T04:22:52;18.10;99.90
29575;DHT22;16507;51.046;6.406;2022-07-21T04:25:20;18.20;99.90
29575;DHT22;16507;51.046;6.406;2022-07-21T04:27:47;18.20;99.90
29575;DHT22;16507;51.046;6.406;2022-07-21T04:30:15;18.20;99.90
29575;DHT22;16507;51.046;6.406;2022-07-21T04:32:41;18.20;99.90
29575;DHT22;16507;51.046;6.406;2022-07-21T04:35:08;18.20;99.90
29575;DHT22;16507;51.046;6.406;2022-07-21T04:37:34;18.20;99.90
29575;DHT22;16507;51.046;6.406;2022-07-21T04:40:00;18.30;99.90
29575;DHT22;16507;51.046;6.406;2022-07-21T04:42:26;18.30;99.90
29575;DHT22;16507;51.046;6.406;2022-07-21T04:44:52;18.30;99.90
29575;DHT22;16507;51.046;6.406;2022-07-21T04:47:17;18.30;99.90
29575;DHT22;16507;51.046;6.406;2022-07-21T04:49:43;18.30;99.90
29575;DHT22;16507;51.046;6.406;2022-07-21T04:52:09;18.30;99.90
29575;DHT22;16507;51.046;6.406;2022-07-21T04:54:34;18.40;99.90
29575;DHT22;16507;51.046;6.406;2022-07-21T04:57:00;18.40;99.90
29575;DHT22;16507;51.046;6.406;2022-07-21T04:59:29;18.30;99.90
29575;DHT22;16507;51.046;6.406;2022-07-21T05:01:55;18.30;99.90
29575;DHT22;16507;51.046;6.406;2022-07-21T05:04:21;18.30;99.90
29575;DHT22;16507;51.046;6.406;2022-07-21T05:06:46;18.30;99.90
29575;DHT22;16507;51.046;6.406;2022-07-21T05:09:12;18.40;99.90
29575;DHT22;16507;51.046;6.406;2022-07-21T05:11:38;18.40;99.90
29575;DHT22;16507;51.046;6.406;2022-07-21T05:14:04;18.40;99.90
29575;DHT22;16507;51.046;6.406;2022-07-21T05:16:30;18.40;99.90
29575;DHT22;16507;51.046;6.406;2022-07-21T05:18:56;18.40;99.90
29575;DHT22;16507;51.046;6.406;2022-07-21T05:21:21;18.50;99.90
29575;DHT22;16507;51.046;6.406;2022-07-21T05:23:47;18.50;99.90
29575;DHT22;16507;51.046;6.406;2022-07-21T05:26:13;18.70;99.90
29575;DHT22;16507;51.046;6.406;2022-07-21T05:28:39;18.70;99.90
29575;DHT22;16507;51.046;6.406;2022-07-21T05:31:05;18.70;99.90
29575;DHT22;16507;51.046;6.406;2022-07-21T05:33:30;18.80;99.90
29575;DHT22;16507;51.046;6.406;2022-07-21T05:35:56;18.80;99.90
29575;DHT22;16507;51.046;6.406;2022-07-21T05:38:22;18.90;99.90
29575;DHT22;16507;51.046;6.406;2022-07-21T05:40:47;19.00;99.90
29575;DHT22;16507;51.046;6.406;2022-07-21T05:43:13;19.00;99.90
29575;DHT22;16507;51.046;6.406;2022-07-21T05:45:39;19.10;99.90
29575;DHT22;16507;51.046;6.406;2022-07-21T05:48:05;19.10;99.90
29575;DHT22;16507;51.046;6.406;2022-07-21T05:50:30;19.00;99.90
29575;DHT22;16507;51.046;6.406;2022-07-21T05:52:56;19.00;99.90
29575;DHT22;16507;51.046;6.406;2022-07-21T05:55:22;19.00;99.90
29575;DHT22;16507;51.046;6.406;2022-07-21T05:57:47;19.10;99.90
29575;DHT22;16507;51.046;6.406;2022-07-21T06:00:14;19.20;99.90
29575;DHT22;16507;51.046;6.406;2022-07-21T06:02:41;19.30;99.90
29575;DHT22;16507;51.046;6.406;2022-07-21T06:05:07;19.30;99.90
29575;DHT22;16507;51.046;6.406;2022-07-21T06:07:34;19.30;99.90
29575;DHT22;16507;51.046;6.406;2022-07-21T06:10:00;19.40;99.90
29575;DHT22;16507;51.046;6.406;2022-07-21T06:12:26;19.30;99.90
29575;DHT22;16507;51.046;6.406;2022-07-21T06:14:52;19.40;99.90
29575;DHT22;16507;51.046;6.406;2022-07-21T06:17:18;19.60;99.90
29575;DHT22;16507;51.046;6.406;2022-07-21T06:19:43;19.80;99.90
29575;DHT22;16507;51.046;6.406;2022-07-21T06:22:09;20.00;99.90
29575;DHT22;16507;51.046;6.406;2022-07-21T06:24:34;19.90;99.90
29575;DHT22;16507;51.046;6.406;2022-07-21T06:27:00;19.70;99.90
29575;DHT22;16507;51.046;6.406;2022-07-21T06:29:26;19.70;99.90
29575;DHT22;16507;51.046;6.406;2022-07-21T06:31:52;19.80;99.90
29575;DHT22;16507;51.046;6.406;2022-07-21T06:34:17;19.80;99.90
29575;DHT22;16507;51.046;6.406;2022-07-21T06:36:43;20.00;99.90
29575;DHT22;16507;51.046;6.406;2022-07-21T06:39:08;20.10;99.90
29575;DHT22;16507;51.046;6.406;2022-07-21T06:41:38;20.30;99.90
29575;DHT22;16507;51.046;6.406;2022-07-21T06:44:03;20.30;99.90
29575;DHT22;16507;51.046;6.406;2022-07-21T06:46:34;20.40;99.90
29575;DHT22;16507;51.046;6.406;2022-07-21T06:49:00;20.40;99.90
29575;DHT22;16507;51.046;6.406;2022-07-21T06:51:26;20.50;99.90
29575;DHT22;16507;51.046;6.406;2022-07-21T06:53:52;20.50;99.90
29575;DHT22;16507;51.046;6.406;2022-07-21T06:56:18;20.40;99.90
29575;DHT22;16507;51.046;6.406;2022-07-21T06:58:43;20.70;99.90
29575;DHT22;16507;51.046;6.406;2022-07-21T07:01:09;20.90;99.90
29575;DHT22;16507;51.046;6.406;2022-07-21T07:03:36;21.10;99.90
29575;DHT22;16507;51.046;6.406;2022-07-21T07:06:03;21.50;99.90
29575;DHT22;16507;51.046;6.406;2022-07-21T07:08:29;21.90;99.90
29575;DHT22;16507;51.046;6.406;2022-07-21T07:10:58;21.90;99.90
29575;DHT22;16507;51.046;6.406;2022-07-21T07:13:23;21.50;99.90
29575;DHT22;16507;51.046;6.406;2022-07-21T07:15:49;21.30;99.90
29575;DHT22;16507;51.046;6.406;2022-07-21T07:18:15;21.10;99.90
29575;DHT22;16507;51.046;6.406;2022-07-21T07:20:41;21.20;99.90
29575;DHT22;16507;51.046;6.406;2022-07-21T07:23:06;21.40;99.90
29575;DHT22;16507;51.046;6.406;2022-07-21T07:25:32;21.40;99.90
29575;DHT22;16507;51.046;6.406;2022-07-21T07:27:58;21.10;99.90
29575;DHT22;16507;51.046;6.406;2022-07-21T07:30:24;21.00;99.90
29575;DHT22;16507;51.046;6.406;2022-07-21T07:32:50;20.80;99.90
29575;DHT22;16507;51.046;6.406;2022-07-21T07:35:16;20.70;99.90
29575;DHT22;16507;51.046;6.406;2022-07-21T07:37:44;20.60;99.90
29575;DHT22;16507;51.046;6.406;2022-07-21T07:40:13;20.80;99.90
29575;DHT22;16507;51.046;6.406;2022-07-21T07:42:39;21.00;99.90
29575;DHT22;16507;51.046;6.406;2022-07-21T07:45:07;21.10;99.90
29575;DHT22;16507;51.046;6.406;2022-07-21T07:47:34;21.00;99.90
29575;DHT22;16507;51.046;6.406;2022-07-21T07:50:00;21.00;99.90
29575;DHT22;16507;51.046;6.406;2022-07-21T07:52:26;21.20;99.90
29575;DHT22;16507;51.046;6.406;2022-07-21T07:54:53;21.30;99.90
29575;DHT22;16507;51.046;6.406;2022-07-21T07:57:19;21.80;99.90
29575;DHT22;16507;51.046;6.406;2022-07-21T07:59:44;22.00;99.90
29575;DHT22;16507;51.046;6.406;2022-07-21T08:02:10;22.00;99.90
29575;DHT22;16507;51.046;6.406;2022-07-21T08:04:36;21.90;99.90
29575;DHT22;16507;51.046;6.406;2022-07-21T08:07:04;21.60;99.90
29575;DHT22;16507;51.046;6.406;2022-07-21T08:09:30;21.60;99.90
29575;DHT22;16507;51.046;6.406;2022-07-21T08:11:56;21.80;99.90
29575;DHT22;16507;51.046;6.406;2022-07-21T08:14:21;22.60;99.90
29575;DHT22;16507;51.046;6.406;2022-07-21T08:16:47;22.90;99.90
29575;DHT22;16507;51.046;6.406;2022-07-21T08:19:13;22.90;99.90
29575;DHT22;16507;51.046;6.406;2022-07-21T08:21:39;22.80;99.90
29575;DHT22;16507;51.046;6.406;2022-07-21T08:24:05;22.90;99.90
29575;DHT22;16507;51.046;6.406;2022-07-21T08:26:30;22.80;99.90
29575;DHT22;16507;51.046;6.406;2022-07-21T08:28:57;22.70;99.90
29575;DHT22;16507;51.046;6.406;2022-07-21T08:31:23;22.60;99.90
29575;DHT22;16507;51.046;6.406;2022-07-21T08:33:50;22.70;99.90
29575;DHT22;16507;51.046;6.406;2022-07-21T08:36:16;22.60;99.90
29575;DHT22;16507;51.046;6.406;2022-07-21T08:38:42;22.40;99.90
29575;DHT22;16507;51.046;6.406;2022-07-21T08:41:08;22.30;99.90
29575;DHT22;16507;51.046;6.406;2022-07-21T08:43:34;22.20;99.90
29575;DHT22;16507;51.046;6.406;2022-07-21T08:46:00;22.20;99.90
29575;DHT22;16507;51.046;6.406;2022-07-21T08:48:28;22.20;99.90
29575;DHT22;16507;51.046;6.406;2022-07-21T08:50:55;22.10;99.90
29575;DHT22;16507;51.046;6.406;2022-07-21T08:53:21;22.40;99.90
29575;DHT22;16507;51.046;6.406;2022-07-21T08:55:47;22.50;99.90
29575;DHT22;16507;51.046;6.406;2022-07-21T08:58:13;22.70;99.90
29575;DHT22;16507;51.046;6.406;2022-07-21T09:00:42;22.50;99.90
29575;DHT22;16507;51.046;6.406;2022-07-21T09:03:18;22.50;99.90
29575;DHT22;16507;51.046;6.406;2022-07-21T09:06:08;22.30;99.90
29575;DHT22;16507;51.046;6.406;2022-07-21T09:08:42;22.20;99.90
29575;DHT22;16507;51.046;6.406;2022-07-21T09:11:13;22.20;99.90
29575;DHT22;16507;51.046;6.406;2022-07-21T09:13:40;22.10;99.90
29575;DHT22;16507;51.046;6.406;2022-07-21T09:16:07;22.30;99.90
29575;DHT22;16507;51.046;6.406;2022-07-21T09:18:32;22.70;99.90
29575;DHT22;16507;51.046;6.406;2022-07-21T09:20:58;23.00;99.90
29575;DHT22;16507;51.046;6.406;2022-07-21T09:23:25;22.80;99.90
29575;DHT22;16507;51.046;6.406;2022-07-21T09:25:54;22.60;99.90
29575;DHT22;16507;51.046;6.406;2022-07-21T09:28:26;22.20;99.90
29575;DHT22;16507;51.046;6.406;2022-07-21T09:31:00;22.00;99.90
29575;DHT22;16507;51.046;6.406;2022-07-21T09:38:30;21.40;99.90
29575;DHT22;16507;51.046;6.406;2022-07-21T09:41:14;21.30;99.90
29575;DHT22;16507;51.046;6.406;2022-07-21T09:43:51;21.20;99.90
29575;DHT22;16507;51.046;6.406;2022-07-21T09:46:24;21.00;99.90
29575;DHT22;16507;51.046;6.406;2022-07-21T09:48:53;20.90;99.90
29575;DHT22;16507;51.046;6.406;2022-07-21T09:51:20;20.80;99.90
29575;DHT22;16507;51.046;6.406;2022-07-21T09:53:53;20.70;99.90
29575;DHT22;16507;51.046;6.406;2022-07-21T09:56:21;20.40;99.90
29575;DHT22;16507;51.046;6.406;2022-07-21T09:58:49;20.30;99.90
29575;DHT22;16507;51.046;6.406;2022-07-21T10:01:16;20.20;99.90
29575;DHT22;16507;51.046;6.406;2022-07-21T10:03:46;20.20;99.90
29575;DHT22;16507;51.046;6.406;2022-07-21T10:06:14;20.10;99.90
29575;DHT22;16507;51.046;6.406;2022-07-21T10:08:41;20.00;99.90
29575;DHT22;16507;51.046;6.406;2022-07-21T10:11:08;19.90;99.90
29575;DHT22;16507;51.046;6.406;2022-07-21T10:13:35;20.00;99.90
29575;DHT22;16507;51.046;6.406;2022-07-21T10:16:01;20.00;99.90
29575;DHT22;16507;51.046;6.406;2022-07-21T10:18:28;19.90;99.90
29575;DHT22;16507;51.046;6.406;2022-07-21T10:23:59;20.10;99.90
29575;DHT22;16507;51.046;6.406;2022-07-21T10:26:25;20.10;99.90
29575;DHT22;16507;51.046;6.406;2022-07-21T10:28:51;20.10;99.90
29575;DHT22;16507;51.046;6.406;2022-07-21T10:31:19;20.00;99.90
29575;DHT22;16507;51.046;6.406;2022-07-21T10:41:44;19.30;99.90
29575;DHT22;16507;51.046;6.406;2022-07-21T11:02:50;19.00;99.90
29575;DHT22;16507;51.046;6.406;2022-07-21T11:05:16;18.90;99.90
29575;DHT22;16507;51.046;6.406;2022-07-21T11:08:08;18.80;99.90
29575;DHT22;16507;51.046;6.406;2022-07-21T11:10:35;18.80;99.90
29575;DHT22;16507;51.046;6.406;2022-07-21T11:13:01;18.70;99.90
29575;DHT22;16507;51.046;6.406;2022-07-21T11:18:24;18.50;99.90
29575;DHT22;16507;51.046;6.406;2022-07-21T11:23:40;18.30;99.90
29575;DHT22;16507;51.046;6.406;2022-07-21T11:26:08;18.20;99.90
29575;DHT22;16507;51.046;6.406;2022-07-21T11:28:34;18.20;99.90
29575;DHT22;16507;51.046;6.406;2022-07-21T11:31:14;18.20;99.90
29575;DHT22;16507;51.046;6.406;2022-07-21T11:33:43;18.10;99.90
29575;DHT22;16507;51.046;6.406;2022-07-21T11:36:09;18.10;99.90
29575;DHT22;16507;51.046;6.406;2022-07-21T11:38:35;18.10;99.90
29575;DHT22;16507;51.046;6.406;2022-07-21T11:43:43;18.00;99.90
29575;DHT22;16507;51.046;6.406;2022-07-21T11:46:09;18.20;99.90
29575;DHT22;16507;51.046;6.406;2022-07-21T11:48:35;18.10;99.90
29575;DHT22;16507;51.046;6.406;2022-07-21T11:51:04;18.10;99.90
29575;DHT22;16507;51.046;6.406;2022-07-21T11:53:30;18.20;99.90
29575;DHT22;16507;51.046;6.406;2022-07-21T11:55:57;18.10;99.90
29575;DHT22;16507;51.046;6.406;2022-07-21T11:58:22;18.10;99.90
29575;DHT22;16507;51.046;6.406;2022-07-21T12:00:48;18.10;99.90
29575;DHT22;16507;51.046;6.406;2022-07-21T12:03:14;18.20;99.90
29575;DHT22;16507;51.046;6.406;2022-07-21T12:05:40;18.30;99.90
29575;DHT22;16507;51.046;6.406;2022-07-21T12:08:07;18.20;99.90
29575;DHT22;16507;51.046;6.406;2022-07-21T12:10:33;18.30;99.90
29575;DHT22;16507;51.046;6.406;2022-07-21T12:13:04;18.30;99.90
29575;DHT22;16507;51.046;6.406;2022-07-21T12:15:32;18.30;99.90
29575;DHT22;16507;51.046;6.406;2022-07-21T12:20:39;18.30;99.90
29575;DHT22;16507;51.046;6.406;2022-07-21T12:23:26;18.50;99.90
29575;DHT22;16507;51.046;6.406;2022-07-21T12:25:53;18.50;99.90
29575;DHT22;16507;51.046;6.406;2022-07-21T12:28:19;18.50;99.90
29575;DHT22;16507;51.046;6.406;2022-07-21T12:30:48;18.30;99.90
29575;DHT22;16507;51.046;6.406;2022-07-21T12:33:26;18.30;99.90
29575;DHT22;16507;51.046;6.406;2022-07-21T12:36:04;18.30;99.90
29575;DHT22;16507;51.046;6.406;2022-07-21T12:38:48;18.30;99.90
29575;DHT22;16507;51.046;6.406;2022-07-21T12:41:23;18.20;99.90
29575;DHT22;16507;51.046;6.406;2022-07-21T12:43:56;18.10;99.90
29575;DHT22;16507;51.046;6.406;2022-07-21T12:46:31;18.30;99.90
29575;DHT22;16507;51.046;6.406;2022-07-21T12:49:04;18.20;99.90
29575;DHT22;16507;51.046;6.406;2022-07-21T12:51:31;18.20;99.90
29575;DHT22;16507;51.046;6.406;2022-07-21T12:53:56;18.10;99.90
29575;DHT22;16507;51.046;6.406;2022-07-21T12:56:27;18.30;99.90
29575;DHT22;16507;51.046;6.406;2022-07-21T12:58:54;18.40;99.90
29575;DHT22;16507;51.046;6.406;2022-07-21T13:01:22;18.80;99.90
29575;DHT22;16507;51.046;6.406;2022-07-21T13:03:48;18.90;99.90
29575;DHT22;16507;51.046;6.406;2022-07-21T13:06:14;18.90;99.90
29575;DHT22;16507;51.046;6.406;2022-07-21T13:08:43;19.00;99.90
29575;DHT22;16507;51.046;6.406;2022-07-21T13:11:12;19.00;99.90
29575;DHT22;16507;51.046;6.406;2022-07-21T13:13:38;19.30;99.90
29575;DHT22;16507;51.046;6.406;2022-07-21T13:16:05;19.50;99.90
29575;DHT22;16507;51.046;6.406;2022-07-21T13:18:31;19.50;99.90
29575;DHT22;16507;51.046;6.406;2022-07-21T13:20:56;19.40;99.90
29575;DHT22;16507;51.046;6.406;2022-07-21T13:23:22;19.30;99.90
29575;DHT22;16507;51.046;6.406;2022-07-21T13:25:49;19.20;99.90
29575;DHT22;16507;51.046;6.406;2022-07-21T13:28:15;19.10;99.90
29575;DHT22;16507;51.046;6.406;2022-07-21T13:30:41;19.00;99.90
29575;DHT22;16507;51.046;6.406;2022-07-21T13:33:07;18.90;99.90
29575;DHT22;16507;51.046;6.406;2022-07-21T13:35:32;18.80;99.90
29575;DHT22;16507;51.046;6.406;2022-07-21T13:37:59;18.70;99.90
29575;DHT22;16507;51.046;6.406;2022-07-21T13:40:26;18.60;99.90
29575;DHT22;16507;51.046;6.406;2022-07-21T13:42:52;18.60;99.90
29575;DHT22;16507;51.046;6.406;2022-07-21T13:45:18;18.50;99.90
29575;DHT22;16507;51.046;6.406;2022-07-21T13:47:43;18.50;99.90
29575;DHT22;16507;51.046;6.406;2022-07-21T13:50:09;18.40;99.90
29575;DHT22;16507;51.046;6.406;2022-07-21T13:52:35;18.20;99.90
29575;DHT22;16507;51.046;6.406;2022-07-21T13:55:03;18.00;99.90
29575;DHT22;16507;51.046;6.406;2022-07-21T13:57:28;17.80;99.90
29575;DHT22;16507;51.046;6.406;2022-07-21T13:59:54;17.70;99.90
29575;DHT22;16507;51.046;6.406;2022-07-21T14:02:20;17.60;99.90
29575;DHT22;16507;51.046;6.406;2022-07-21T14:04:45;17.60;99.90
29575;DHT22;16507;51.046;6.406;2022-07-21T14:07:11;17.80;99.90
29575;DHT22;16507;51.046;6.406;2022-07-21T14:09:40;17.90;99.90
29575;DHT22;16507;51.046;6.406;2022-07-21T14:12:06;18.00;99.90
29575;DHT22;16507;51.046;6.406;2022-07-21T14:14:31;18.10;99.90
29575;DHT22;16507;51.046;6.406;2022-07-21T14:16:57;18.30;99.90
29575;DHT22;16507;51.046;6.406;2022-07-21T14:19:23;18.50;99.90
29575;DHT22;16507;51.046;6.406;2022-07-21T14:21:49;18.60;99.90
29575;DHT22;16507;51.046;6.406;2022-07-21T14:24:15;18.70;99.90
29575;DHT22;16507;51.046;6.406;2022-07-21T14:27:00;18.80;99.90
29575;DHT22;16507;51.046;6.406;2022-07-21T14:29:26;18.90;99.90
29575;DHT22;16507;51.046;6.406;2022-07-21T14:31:52;18.90;99.90
29575;DHT22;16507;51.046;6.406;2022-07-21T14:34:17;18.80;99.90
29575;DHT22;16507;51.046;6.406;2022-07-21T14:36:43;18.80;99.90
29575;DHT22;16507;51.046;6.406;2022-07-21T14:39:09;18.90;99.90
29575;DHT22;16507;51.046;6.406;2022-07-21T14:41:35;19.10;99.90
29575;DHT22;16507;51.046;6.406;2022-07-21T14:44:01;19.30;99.90
29575;DHT22;16507;51.046;6.406;2022-07-21T14:46:26;19.50;99.90
29575;DHT22;16507;51.046;6.406;2022-07-21T14:48:52;19.70;99.90
29575;DHT22;16507;51.046;6.406;2022-07-21T14:51:17;19.80;99.90
29575;DHT22;16507;51.046;6.406;2022-07-21T14:53:43;19.70;99.90
29575;DHT22;16507;51.046;6.406;2022-07-21T14:56:09;19.70;99.90
29575;DHT22;16507;51.046;6.406;2022-07-21T14:58:35;19.70;99.90
29575;DHT22;16507;51.046;6.406;2022-07-21T15:01:01;19.60;99.90
29575;DHT22;16507;51.046;6.406;2022-07-21T15:03:26;19.60;99.90
29575;DHT22;16507;51.046;6.406;2022-07-21T15:05:52;19.60;99.90
29575;DHT22;16507;51.046;6.406;2022-07-21T15:08:18;19.50;99.90
29575;DHT22;16507;51.046;6.406;2022-07-21T15:10:44;19.50;99.90
29575;DHT22;16507;51.046;6.406;2022-07-21T15:13:11;19.50;99.90
29575;DHT22;16507;51.046;6.406;2022-07-21T15:15:37;19.50;99.90
29575;DHT22;16507;51.046;6.406;2022-07-21T15:18:03;19.30;99.90
29575;DHT22;16507;51.046;6.406;2022-07-21T15:20:29;19.20;99.90
29575;DHT22;16507;51.046;6.406;2022-07-21T15:22:55;19.20;99.90
29575;DHT22;16507;51.046;6.406;2022-07-21T15:25:20;19.00;99.90
29575;DHT22;16507;51.046;6.406;2022-07-21T15:27:47;19.00;99.90
29575;DHT22;16507;51.046;6.406;2022-07-21T15:30:14;18.80;99.90
29575;DHT22;16507;51.046;6.406;2022-07-21T15:32:41;18.80;99.90
29575;DHT22;16507;51.046;6.406;2022-07-21T15:35:07;18.60;99.90
29575;DHT22;16507;51.046;6.406;2022-07-21T15:37:33;18.60;99.90
29575;DHT22;16507;51.046;6.406;2022-07-21T15:39:59;18.60;99.90
29575;DHT22;16507;51.046;6.406;2022-07-21T15:42:24;18.60;99.90
29575;DHT22;16507;51.046;6.406;2022-07-21T15:44:51;18.60;99.90
29575;DHT22;16507;51.046;6.406;2022-07-21T15:47:16;18.50;99.90
29575;DHT22;16507;51.046;6.406;2022-07-21T15:49:42;18.40;99.90
29575;DHT22;16507;51.046;6.406;2022-07-21T15:52:08;18.20;99.90
29575;DHT22;16507;51.046;6.406;2022-07-21T15:54:34;18.00;99.90
29575;DHT22;16507;51.046;6.406;2022-07-21T15:56:59;17.80;99.90
29575;DHT22;16507;51.046;6.406;2022-07-21T15:59:25;17.70;99.90
29575;DHT22;16507;51.046;6.406;2022-07-21T16:02:01;17.60;99.90
29575;DHT22;16507;51.046;6.406;2022-07-21T16:04:27;17.50;99.90
29575;DHT22;16507;51.046;6.406;2022-07-21T16:06:53;17.50;99.90
29575;DHT22;16507;51.046;6.406;2022-07-21T16:09:19;17.60;99.90
29575;DHT22;16507;51.046;6.406;2022-07-21T16:11:44;17.70;99.90
29575;DHT22;16507;51.046;6.406;2022-07-21T16:14:10;17.90;99.90